Time,TemperatureF,DewpointF,PressureIn,WindDirection,WindDirectionDegrees,WindSpeedMPH,WindSpeedGustMPH,Humidity,HourlyPrecipIn,Conditions,Clouds,dailyrainin,SolarRadiationWatts/m^2,SoftwareType,DateUTC
2013-09-05 00:04:00,73.0,72.0,-100.00,NNW,337,3.0,5.0,98,0.00,,,0.17,0.000000,,2013-09-05 04:04:00,
2013-09-05 00:44:00,72.0,71.0,-100.00,WSW,239,2.0,4.0,98,0.00,,,0.17,0.000000,,2013-09-05 04:44:00,
2013-09-05 00:53:00,72.0,71.0,-100.00,WSW,239,2.0,4.0,98,0.00,,,0.17,0.000000,,2013-09-05 04:53:00,
2013-09-05 01:03:00,72.0,71.0,-100.00,WSW,239,2.0,4.0,98,0.00,,,0.17,0.000000,,2013-09-05 05:03:00,
2013-09-05 01:43:00,72.0,71.0,-100.00,East,97,4.0,7.0,98,0.00,,,0.17,0.000000,,2013-09-05 05:43:00,
2013-09-05 01:52:00,72.0,71.0,-100.00,East,97,4.0,7.0,98,0.00,,,0.17,0.000000,,2013-09-05 05:52:00,
2013-09-05 02:02:00,72.0,71.0,-100.00,East,97,4.0,7.0,98,0.00,,,0.17,0.000000,,2013-09-05 06:02:00,
2013-09-05 02:42:00,71.0,70.0,-100.00,West,273,4.0,5.0,98,0.00,,,0.17,0.000000,,2013-09-05 06:42:00,
2013-09-05 02:52:00,71.0,70.0,-100.00,West,273,4.0,5.0,98,0.00,,,0.17,0.000000,,2013-09-05 06:52:00,
2013-09-05 03:01:00,71.0,70.0,-100.00,West,273,4.0,5.0,98,0.00,,,0.17,0.000000,,2013-09-05 07:01:00,
2013-09-05 03:42:00,71.0,70.0,-100.00,SSE,151,0.0,5.0,98,0.00,,,0.17,0.000000,,2013-09-05 07:42:00,
2013-09-05 03:52:00,71.0,70.0,-100.00,SSE,151,0.0,5.0,98,0.00,,,0.17,0.000000,,2013-09-05 07:52:00,
2013-09-05 04:03:00,71.0,70.0,-100.00,SSE,151,0.0,5.0,98,0.00,,,0.17,0.000000,,2013-09-05 08:03:00,
2013-09-05 04:42:00,70.0,70.0,-100.00,NW,325,0.0,1.0,99,0.00,,,0.17,0.000000,,2013-09-05 08:42:00,
2013-09-05 04:52:00,70.0,70.0,-100.00,NW,325,0.0,1.0,99,0.00,,,0.17,0.000000,,2013-09-05 08:52:00,
2013-09-05 05:03:00,70.0,70.0,-100.00,NW,325,0.0,1.0,99,0.00,,,0.17,0.000000,,2013-09-05 09:03:00,
2013-09-05 05:43:00,69.0,69.0,-100.00,East,94,0.0,0.0,99,0.00,,,0.17,0.000000,,2013-09-05 09:43:00,
2013-09-05 05:54:00,69.0,69.0,-100.00,East,94,0.0,0.0,99,0.00,,,0.17,0.000000,,2013-09-05 09:54:00,
2013-09-05 06:03:00,69.0,69.0,-100.00,East,94,0.0,0.0,99,0.00,,,0.17,0.000000,,2013-09-05 10:03:00,
2013-09-05 06:43:00,68.0,68.0,-100.00,NE,49,1.0,5.0,99,0.00,,,0.17,0.000000,,2013-09-05 10:43:00,
2013-09-05 06:53:00,68.0,68.0,-100.00,NE,49,1.0,5.0,99,0.00,,,0.17,0.000000,,2013-09-05 10:53:00,
2013-09-05 07:03:00,68.0,68.0,-100.00,NE,49,1.0,5.0,99,0.00,,,0.17,0.000000,,2013-09-05 11:03:00,
2013-09-05 07:43:00,69.0,69.0,-100.00,ENE,66,1.0,6.0,99,0.00,,,0.17,0.000000,,2013-09-05 11:43:00,
2013-09-05 07:52:00,69.0,69.0,-100.00,ENE,66,1.0,6.0,99,0.00,,,0.17,0.000000,,2013-09-05 11:52:00,
2013-09-05 08:01:00,69.0,69.0,-100.00,ENE,66,1.0,6.0,99,0.00,,,0.17,0.000000,,2013-09-05 12:01:00,
2013-09-05 08:42:00,69.0,69.0,-100.00,ENE,59,0.0,2.0,99,0.01,,,0.18,20.000000,,2013-09-05 12:42:00,
2013-09-05 08:52:00,69.0,69.0,-100.00,ENE,59,0.0,2.0,99,0.01,,,0.18,20.000000,,2013-09-05 12:52:00,
2013-09-05 09:01:00,69.0,69.0,-100.00,ENE,59,0.0,2.0,99,0.01,,,0.18,20.000000,,2013-09-05 13:01:00,
2013-09-05 09:42:00,72.0,72.0,-100.00,ENE,67,1.0,5.0,99,0.00,,,0.18,63.000000,,2013-09-05 13:42:00,
2013-09-05 09:53:00,72.0,72.0,-100.00,ENE,67,1.0,5.0,99,0.00,,,0.18,63.000000,,2013-09-05 13:53:00,
2013-09-05 10:02:00,72.0,72.0,-100.00,ENE,67,1.0,5.0,99,0.00,,,0.18,63.000000,,2013-09-05 14:02:00,
2013-09-05 10:42:00,76.0,75.0,-100.00,SE,132,2.0,5.0,98,0.00,,,0.18,117.000000,,2013-09-05 14:42:00,
2013-09-05 12:43:00,88.0,77.0,-100.00,SSW,193,3.0,6.0,70,0.00,,,0.18,618.000000,,2013-09-05 16:43:00,
2013-09-05 12:54:00,88.0,77.0,-100.00,SSW,193,3.0,6.0,70,0.00,,,0.18,618.000000,,2013-09-05 16:54:00,
2013-09-05 13:03:00,88.0,77.0,-100.00,SSW,193,3.0,6.0,70,0.00,,,0.18,618.000000,,2013-09-05 17:03:00,
2013-09-05 13:43:00,90.0,77.0,-100.00,SSE,160,2.0,7.0,65,0.00,,,0.18,734.000000,,2013-09-05 17:43:00,
2013-09-05 13:52:00,90.0,77.0,-100.00,SSE,160,2.0,7.0,65,0.00,,,0.18,734.000000,,2013-09-05 17:52:00,
2013-09-05 14:02:00,90.0,77.0,-100.00,SSE,160,2.0,7.0,65,0.00,,,0.18,734.000000,,2013-09-05 18:02:00,
2013-09-05 15:42:00,92.0,72.0,-100.00,West,276,1.0,5.0,53,0.00,,,0.18,662.000000,,2013-09-05 19:42:00,
2013-09-05 15:52:00,92.0,72.0,-100.00,West,276,1.0,5.0,53,0.00,,,0.18,662.000000,,2013-09-05 19:52:00,
2013-09-05 16:03:00,92.0,72.0,-100.00,West,276,1.0,5.0,53,0.00,,,0.18,662.000000,,2013-09-05 20:03:00,
2013-09-05 17:44:00,88.0,72.0,-100.00,NNE,20,3.0,5.0,59,0.00,,,0.18,547.000000,,2013-09-05 21:44:00,
2013-09-05 17:54:00,88.0,72.0,-100.00,NNE,20,3.0,5.0,59,0.00,,,0.18,547.000000,,2013-09-05 21:54:00,
2013-09-05 18:04:00,88.0,72.0,-100.00,NNE,20,3.0,5.0,59,0.00,,,0.18,547.000000,,2013-09-05 22:04:00,
2013-09-05 20:42:00,75.0,73.0,-100.00,NNW,342,2.0,4.0,93,0.00,,,0.01,6.000000,,2013-09-06 00:42:00,
2013-09-05 20:52:00,75.0,73.0,-100.00,NNW,342,2.0,4.0,93,0.00,,,0.01,6.000000,,2013-09-06 00:52:00,
2013-09-05 21:02:00,75.0,73.0,-100.00,NNW,342,2.0,4.0,93,0.00,,,0.01,6.000000,,2013-09-06 01:02:00,
2013-09-05 21:42:00,74.0,73.0,-100.00,WSW,247,0.0,4.0,96,0.00,,,0.01,0.000000,,2013-09-06 01:42:00,
2013-09-05 21:52:00,74.0,73.0,-100.00,WSW,247,0.0,4.0,96,0.00,,,0.01,0.000000,,2013-09-06 01:52:00,
2013-09-05 22:02:00,74.0,73.0,-100.00,WSW,247,0.0,4.0,96,0.00,,,0.01,0.000000,,2013-09-06 02:02:00,
2013-09-05 22:42:00,73.0,72.0,-100.00,North,11,2.0,4.0,97,0.00,,,0.01,0.000000,,2013-09-06 02:42:00,
2013-09-05 22:52:00,73.0,72.0,-100.00,North,11,2.0,4.0,97,0.00,,,0.01,0.000000,,2013-09-06 02:52:00,
2013-09-05 23:02:00,73.0,72.0,-100.00,North,11,2.0,4.0,97,0.00,,,0.01,0.000000,,2013-09-06 03:02:00,
2013-09-05 23:44:00,71.0,70.0,-100.00,ENE,74,3.0,4.0,98,0.00,,,0.01,0.000000,,2013-09-06 03:44:00,
2013-09-05 23:55:00,71.0,70.0,-100.00,ENE,74,3.0,4.0,98,0.00,,,0.01,0.000000,,2013-09-06 03:55:00,